Time;durP1;ratioP1;P1;durP2;ratioP2;P2;SDS_P1;SDS_P2;PMS_P1;PMS_P2;Temp;Humidity;BMP_temperature;BMP_pressure;BME280_temperature;BME280_humidity;BME280_pressure;Samples;Min_cycle;Max_cycle;Signal;HPM_P1;HPM_P2
2023/03/18 00:00:47;;;;;;;4.20;2.30;;;;;;;;;;5027175;28;20215;-87
2023/03/18 00:03:13;;;;;;;3.33;2.03;;;;;;;;;;5021202;28;20789;-87
2023/03/18 00:05:38;;;;;;;2.40;2.20;;;;;;;;;;5000342;28;20231;-88
2023/03/18 00:08:04;;;;;;;2.60;2.40;;;;;;;;;;5027667;28;20215;-87
2023/03/18 00:10:31;;;;;;;4.03;2.33;;;;;;;;;;5017804;28;20208;-88
2023/03/18 00:12:57;;;;;;;5.87;2.63;;;;;;;;;;4997222;28;20232;-88
2023/03/18 00:15:24;;;;;;;3.83;2.33;;;;;;;;;;5045623;28;20222;-88
2023/03/18 00:17:50;;;;;;;4.90;2.43;;;;;;;;;;5004588;28;20231;-88
2023/03/18 00:20:17;;;;;;;3.10;2.27;;;;;;;;;;5032799;28;20284;-88
2023/03/18 00:22:44;;;;;;;2.63;2.37;;;;;;;;;;5018878;28;20617;-88
2023/03/18 00:25:15;;;;;;;3.10;2.43;;;;;;;;;;5029677;28;20255;-87
2023/03/18 00:27:40;;;;;;;4.73;2.33;;;;;;;;;;5049748;28;20219;-86
2023/03/18 00:30:07;;;;;;;2.97;2.20;;;;;;;;;;5017231;28;20250;-87
2023/03/18 00:32:34;;;;;;;2.50;2.30;;;;;;;;;;5008513;28;20228;-88
2023/03/18 00:35:00;;;;;;;5.83;2.40;;;;;;;;;;5006431;28;20277;-88
2023/03/18 00:37:32;;;;;;;4.10;2.30;;;;;;;;;;5025891;28;20215;-88
2023/03/18 00:40:05;;;;;;;2.47;2.17;;;;;;;;;;5051625;28;20219;-87
2023/03/18 00:43:00;;;;;;;3.00;2.27;;;;;;;;;;5005413;28;20232;-87
2023/03/18 00:45:20;;;;;;;2.90;2.50;;;;;;;;;;5052658;28;20258;-87
2023/03/18 00:47:49;;;;;;;2.57;2.37;;;;;;;;;;5000210;28;20219;-88
2023/03/18 00:50:15;;;;;;;3.30;2.63;;;;;;;;;;5000762;28;20643;-87
2023/03/18 00:52:40;;;;;;;3.53;2.37;;;;;;;;;;5048656;28;20307;-88
2023/03/18 00:55:07;;;;;;;3.00;2.60;;;;;;;;;;5041987;28;20214;-88
2023/03/18 00:57:33;;;;;;;2.90;2.60;;;;;;;;;;5041778;28;20286;-87
2023/03/18 01:00:01;;;;;;;3.03;2.63;;;;;;;;;;4993079;28;20688;-88
2023/03/18 01:02:28;;;;;;;2.50;2.30;;;;;;;;;;5004588;28;20270;-86
2023/03/18 01:04:54;;;;;;;2.93;2.63;;;;;;;;;;5021787;28;20251;-88
2023/03/18 01:07:25;;;;;;;3.20;2.70;;;;;;;;;;5005197;28;20292;-88
2023/03/18 01:09:56;;;;;;;3.17;2.37;;;;;;;;;;5021427;28;20211;-87
2023/03/18 01:12:24;;;;;;;2.77;2.50;;;;;;;;;;5010442;28;20227;-86
2023/03/18 01:14:52;;;;;;;5.47;2.80;;;;;;;;;;5014857;28;20279;-86
2023/03/18 01:17:21;;;;;;;2.70;2.43;;;;;;;;;;5014003;28;20279;-86
2023/03/18 01:19:47;;;;;;;4.80;2.53;;;;;;;;;;5043923;28;20714;-86
2023/03/18 01:22:13;;;;;;;2.47;2.17;;;;;;;;;;5009825;28;20229;-86
2023/03/18 01:24:46;;;;;;;5.37;2.53;;;;;;;;;;5010305;28;20224;-86
2023/03/18 01:27:17;;;;;;;2.67;2.47;;;;;;;;;;5030181;28;20224;-86
2023/03/18 01:29:48;;;;;;;3.03;2.50;;;;;;;;;;5017213;28;20223;-86
2023/03/18 01:32:20;;;;;;;3.17;2.57;;;;;;;;;;5033484;28;20201;-87
2023/03/18 01:34:46;;;;;;;3.17;2.87;;;;;;;;;;5064094;28;20220;-87
2023/03/18 01:37:14;;;;;;;5.90;2.70;;;;;;;;;;5048849;28;20234;-89
2023/03/18 01:39:46;;;;;;;3.40;2.40;;;;;;;;;;5026945;28;20229;-89
2023/03/18 01:42:19;;;;;;;3.30;2.43;;;;;;;;;;5023092;28;20207;-89
2023/03/18 01:44:45;;;;;;;2.93;2.73;;;;;;;;;;5062013;28;20240;-89
2023/03/18 01:47:16;;;;;;;3.43;2.57;;;;;;;;;;5041840;28;20219;-89
2023/03/18 01:49:47;;;;;;;7.17;2.87;;;;;;;;;;5042851;28;20212;-89
2023/03/18 01:52:24;;;;;;;3.93;2.67;;;;;;;;;;5046943;28;20238;-88
2023/03/18 01:55:04;;;;;;;6.30;2.77;;;;;;;;;;5047918;28;20265;-88
2023/03/18 01:57:29;;;;;;;3.23;3.03;;;;;;;;;;5053938;28;20239;-89
2023/03/18 01:59:57;;;;;;;6.77;2.90;;;;;;;;;;5026490;28;20204;-89
2023/03/18 02:02:24;;;;;;;3.47;2.50;;;;;;;;;;5055721;28;20236;-87
2023/03/18 02:04:53;;;;;;;5.57;2.37;;;;;;;;;;5043406;28;20230;-87
2023/03/18 02:07:23;;;;;;;2.93;2.30;;;;;;;;;;5024797;28;20220;-87
2023/03/18 02:09:52;;;;;;;3.53;2.53;;;;;;;;;;5025370;28;20216;-87
2023/03/18 02:12:23;;;;;;;3.47;2.73;;;;;;;;;;5041833;28;20214;-88
2023/03/18 02:14:54;;;;;;;4.33;2.40;;;;;;;;;;5050797;28;20208;-87
2023/03/18 02:17:26;;;;;;;2.73;2.53;;;;;;;;;;5031928;28;20259;-88
2023/03/18 02:20:21;;;;;;;3.43;2.43;;;;;;;;;;5024491;28;20212;-88
2023/03/18 02:22:56;;;;;;;4.47;2.47;;;;;;;;;;5056087;28;20258;-88
2023/03/18 02:25:53;;;;;;;2.83;2.47;;;;;;;;;;5048718;28;22914;-88
2023/03/18 02:28:24;;;;;;;3.00;2.70;;;;;;;;;;5031047;28;20261;-87
2023/03/18 02:30:55;;;;;;;3.20;2.33;;;;;;;;;;5040691;28;20211;-88
2023/03/18 02:33:22;;;;;;;2.97;2.10;;;;;;;;;;5024578;28;20237;-86
2023/03/18 02:35:50;;;;;;;4.17;2.40;;;;;;;;;;5030718;28;20243;-90
2023/03/18 02:38:20;;;;;;;3.77;2.77;;;;;;;;;;5047002;28;20656;-87
2023/03/18 02:40:47;;;;;;;4.03;2.70;;;;;;;;;;5023581;28;20216;-87
2023/03/18 02:43:17;;;;;;;3.60;2.60;;;;;;;;;;5020583;28;20211;-87
2023/03/18 02:46:09;;;;;;;5.20;2.57;;;;;;;;;;5054208;28;20222;-87
2023/03/18 02:48:37;;;;;;;3.50;2.60;;;;;;;;;;5065295;28;20224;-87
2023/03/18 02:51:06;;;;;;;3.10;2.80;;;;;;;;;;4982501;28;20725;-88
2023/03/18 02:53:34;;;;;;;4.20;2.67;;;;;;;;;;5011000;28;20224;-87
2023/03/18 02:56:00;;;;;;;6.07;2.77;;;;;;;;;;5041433;28;20305;-88
2023/03/18 02:58:29;;;;;;;3.93;2.73;;;;;;;;;;5008843;28;20248;-88
2023/03/18 03:00:59;;;;;;;5.10;3.10;;;;;;;;;;5037359;28;20701;-88
2023/03/18 03:03:25;;;;;;;3.20;2.67;;;;;;;;;;4992960;28;20221;-88
2023/03/18 03:05:51;;;;;;;4.77;3.13;;;;;;;;;;4997300;28;20216;-88
2023/03/18 03:08:20;;;;;;;3.23;2.93;;;;;;;;;;5006214;28;20215;-88
2023/03/18 03:10:46;;;;;;;4.47;3.17;;;;;;;;;;5004431;28;20293;-88
2023/03/18 03:13:14;;;;;;;4.13;3.30;;;;;;;;;;5041684;28;20228;-88
2023/03/18 03:15:41;;;;;;;3.10;2.80;;;;;;;;;;5016806;28;20231;-88
2023/03/18 03:18:10;;;;;;;4.70;3.20;;;;;;;;;;5004268;28;20685;-88
2023/03/18 03:20:39;;;;;;;3.70;3.30;;;;;;;;;;5006378;28;20215;-89
2023/03/18 03:23:05;;;;;;;5.23;3.07;;;;;;;;;;5011578;28;20567;-88
2023/03/18 03:25:31;;;;;;;4.33;3.40;;;;;;;;;;5029818;28;20235;-87
2023/03/18 03:28:01;;;;;;;4.37;3.30;;;;;;;;;;5027739;28;20275;-89
2023/03/18 03:30:29;;;;;;;6.17;3.67;;;;;;;;;;5045367;28;20573;-88
2023/03/18 03:32:55;;;;;;;4.27;3.50;;;;;;;;;;4983437;28;20688;-89
2023/03/18 03:35:23;;;;;;;5.40;3.73;;;;;;;;;;5015609;28;20220;-89
2023/03/18 03:37:51;;;;;;;3.97;3.47;;;;;;;;;;5011486;28;20767;-88
2023/03/18 03:40:17;;;;;;;5.23;3.80;;;;;;;;;;5036186;28;20315;-89
2023/03/18 03:42:44;;;;;;;4.67;3.77;;;;;;;;;;5022248;28;20224;-88
2023/03/18 03:45:11;;;;;;;4.73;3.67;;;;;;;;;;5026236;28;20247;-88
2023/03/18 03:47:37;;;;;;;6.00;3.87;;;;;;;;;;5017833;28;20211;-89
2023/03/18 03:50:05;;;;;;;4.67;3.93;;;;;;;;;;5034353;28;20218;-89
2023/03/18 03:52:31;;;;;;;5.17;4.17;;;;;;;;;;5001192;28;20223;-88
2023/03/18 03:54:59;;;;;;;6.10;4.27;;;;;;;;;;5000789;28;20239;-89
2023/03/18 03:57:25;;;;;;;4.47;4.07;;;;;;;;;;5017305;28;20694;-90
2023/03/18 03:59:51;;;;;;;6.43;4.47;;;;;;;;;;5034088;28;20223;-88
2023/03/18 04:02:22;;;;;;;9.67;5.00;;;;;;;;;;5034732;28;20222;-88
2023/03/18 04:04:49;;;;;;;6.43;4.93;;;;;;;;;;5036788;28;20234;-88
2023/03/18 04:07:23;;;;;;;5.20;4.70;;;;;;;;;;5012193;28;20689;-88
2023/03/18 04:09:50;;;;;;;7.03;5.20;;;;;;;;;;5014766;28;20219;-88
2023/03/18 04:12:19;;;;;;;6.03;5.43;;;;;;;;;;5012936;28;20263;-88
2023/03/18 04:14:51;;;;;;;6.43;5.20;;;;;;;;;;5015940;28;20216;-88
2023/03/18 04:17:16;;;;;;;6.37;5.40;;;;;;;;;;5006190;28;20357;-88
2023/03/18 04:19:42;;;;;;;6.37;5.50;;;;;;;;;;5071609;28;20287;-89
2023/03/18 04:22:09;;;;;;;10.13;5.87;;;;;;;;;;5020444;28;20752;-87
2023/03/18 04:24:38;;;;;;;7.50;6.17;;;;;;;;;;5015428;28;20236;-88
2023/03/18 04:27:03;;;;;;;9.83;6.67;;;;;;;;;;5031944;28;20220;-88
2023/03/18 04:29:32;;;;;;;7.60;6.60;;;;;;;;;;4983293;28;20282;-89
2023/03/18 04:32:00;;;;;;;7.53;6.70;;;;;;;;;;4998108;28;20300;-88
2023/03/18 04:34:26;;;;;;;8.37;6.57;;;;;;;;;;5014760;28;20221;-88
2023/03/18 04:36:54;;;;;;;10.37;7.00;;;;;;;;;;5016456;28;20299;-88
2023/03/18 04:39:21;;;;;;;8.87;7.80;;;;;;;;;;5026323;28;20203;-88
2023/03/18 04:41:46;;;;;;;8.93;7.13;;;;;;;;;;5022695;28;20207;-89
2023/03/18 04:44:14;;;;;;;10.40;7.67;;;;;;;;;;5037679;28;20258;-89
2023/03/18 04:46:48;;;;;;;12.67;8.00;;;;;;;;;;5038186;28;20219;-89
2023/03/18 04:49:13;;;;;;;13.37;8.77;;;;;;;;;;5016714;28;20244;-88
2023/03/18 04:51:39;;;;;;;9.67;8.43;;;;;;;;;;5009379;28;20694;-87
2023/03/18 04:54:11;;;;;;;11.53;8.37;;;;;;;;;;5022292;28;20311;-88
2023/03/18 04:56:38;;;;;;;11.13;8.37;;;;;;;;;;5022653;28;20215;-88
2023/03/18 04:59:06;;;;;;;11.03;8.57;;;;;;;;;;5022725;28;20231;-89
2023/03/18 05:01:32;;;;;;;11.57;8.07;;;;;;;;;;5038771;28;20227;-88
2023/03/18 05:03:58;;;;;;;9.93;8.33;;;;;;;;;;5020111;28;20247;-88
2023/03/18 05:06:36;;;;;;;12.40;8.70;;;;;;;;;;5010532;28;20231;-88
2023/03/18 05:09:08;;;;;;;10.47;8.43;;;;;;;;;;5049020;28;20250;-88
2023/03/18 05:11:35;;;;;;;13.07;9.40;;;;;;;;;;5001456;28;20270;-88
2023/03/18 05:14:12;;;;;;;11.87;9.50;;;;;;;;;;5000309;28;20225;-88
2023/03/18 05:16:44;;;;;;;13.37;10.13;;;;;;;;;;5015960;28;20227;-90
2023/03/18 05:19:10;;;;;;;13.33;9.43;;;;;;;;;;5014780;28;20248;-88
2023/03/18 05:21:41;;;;;;;11.93;10.03;;;;;;;;;;5000394;28;20224;-88
2023/03/18 05:24:11;;;;;;;11.57;10.37;;;;;;;;;;4998813;28;20343;-88
2023/03/18 05:26:39;;;;;;;12.87;9.97;;;;;;;;;;5000413;28;20586;-89
2023/03/18 05:29:07;;;;;;;11.80;10.50;;;;;;;;;;5016230;28;20236;-88
2023/03/18 05:31:44;;;;;;;14.17;9.93;;;;;;;;;;5019571;28;20231;-88
2023/03/18 05:34:12;;;;;;;13.43;9.63;;;;;;;;;;5019915;28;20225;-88
2023/03/18 05:36:41;;;;;;;11.53;10.33;;;;;;;;;;5004005;28;20201;-88
2023/03/18 05:39:09;;;;;;;12.17;10.20;;;;;;;;;;5035877;28;20260;-88
2023/03/18 05:41:38;;;;;;;13.07;10.93;;;;;;;;;;5019716;28;20228;-90
2023/03/18 05:44:09;;;;;;;11.93;10.37;;;;;;;;;;5018758;28;20249;-88
2023/03/18 05:46:38;;;;;;;11.27;10.07;;;;;;;;;;5018668;28;20224;-87
2023/03/18 05:49:09;;;;;;;12.67;9.83;;;;;;;;;;5019241;28;20217;-89
2023/03/18 05:51:48;;;;;;;11.80;10.17;;;;;;;;;;5020619;28;20284;-89
2023/03/18 05:54:28;;;;;;;12.47;10.23;;;;;;;;;;5020396;28;20569;-88
2023/03/18 05:56:54;;;;;;;11.33;10.17;;;;;;;;;;5020941;28;20296;-89
2023/03/18 05:59:20;;;;;;;11.13;9.93;;;;;;;;;;5020492;28;20251;-88
2023/03/18 06:01:52;;;;;;;11.47;10.33;;;;;;;;;;5021528;28;20221;-89
2023/03/18 06:04:21;;;;;;;11.40;9.77;;;;;;;;;;5019732;28;20683;-88
2023/03/18 06:06:48;;;;;;;11.17;9.80;;;;;;;;;;5019864;28;20233;-88
2023/03/18 06:09:15;;;;;;;10.87;9.77;;;;;;;;;;5017735;28;20316;-88
2023/03/18 06:11:44;;;;;;;14.47;10.37;;;;;;;;;;5021535;28;20264;-88
2023/03/18 06:14:13;;;;;;;17.87;10.73;;;;;;;;;;5005214;28;20256;-90
2023/03/18 06:16:39;;;;;;;11.73;10.53;;;;;;;;;;5023760;28;20212;-88
2023/03/18 06:19:05;;;;;;;13.27;10.90;;;;;;;;;;5001871;28;20274;-89
2023/03/18 06:21:31;;;;;;;12.73;10.40;;;;;;;;;;5015758;28;20219;-88
2023/03/18 06:23:57;;;;;;;14.50;11.40;;;;;;;;;;5041117;28;20219;-88
2023/03/18 06:26:26;;;;;;;13.77;12.17;;;;;;;;;;5019957;28;20578;-88
2023/03/18 06:28:52;;;;;;;14.97;12.07;;;;;;;;;;5004617;28;20235;-88
2023/03/18 06:31:22;;;;;;;12.63;11.33;;;;;;;;;;5012602;28;20230;-89
2023/03/18 06:33:51;;;;;;;13.73;11.07;;;;;;;;;;5024026;28;20219;-89
2023/03/18 06:36:19;;;;;;;14.63;11.10;;;;;;;;;;5022959;28;20238;-89
2023/03/18 06:38:48;;;;;;;13.23;11.93;;;;;;;;;;5041372;28;20251;-87
2023/03/18 06:41:13;;;;;;;16.37;12.10;;;;;;;;;;5044193;28;20229;-87
2023/03/18 06:43:50;;;;;;;14.43;10.93;;;;;;;;;;5027574;28;20230;-89
2023/03/18 06:46:17;;;;;;;14.00;11.40;;;;;;;;;;5022530;28;20227;-89
2023/03/18 06:48:44;;;;;;;13.23;11.53;;;;;;;;;;5007570;28;20227;-89
2023/03/18 06:51:12;;;;;;;12.60;11.30;;;;;;;;;;5006642;28;20228;-88
2023/03/18 06:53:42;;;;;;;11.00;9.83;;;;;;;;;;5022830;28;20266;-88
2023/03/18 06:56:08;;;;;;;12.60;10.50;;;;;;;;;;4996035;28;20227;-88
2023/03/18 06:58:48;;;;;;;11.97;10.73;;;;;;;;;;5020943;28;20572;-88
2023/03/18 07:01:18;;;;;;;13.10;10.90;;;;;;;;;;5017717;28;20227;-88
2023/03/18 07:03:45;;;;;;;12.80;10.80;;;;;;;;;;5018390;28;20234;-87
2023/03/18 07:06:14;;;;;;;12.87;9.93;;;;;;;;;;5007057;28;20216;-88
2023/03/18 07:08:44;;;;;;;13.83;10.00;;;;;;;;;;5021884;28;20253;-88
2023/03/18 07:11:12;;;;;;;10.67;9.57;;;;;;;;;;5020689;28;20223;-87
2023/03/18 07:13:41;;;;;;;11.40;9.60;;;;;;;;;;4987613;28;20299;-88
2023/03/18 07:16:15;;;;;;;11.10;9.10;;;;;;;;;;4989758;28;20238;-88
2023/03/18 07:18:42;;;;;;;10.40;8.73;;;;;;;;;;5003467;28;20285;-88
2023/03/18 07:21:10;;;;;;;9.93;8.73;;;;;;;;;;5020397;28;20220;-87
2023/03/18 07:23:36;;;;;;;11.73;9.80;;;;;;;;;;5013184;28;20216;-86
2023/03/18 07:26:02;;;;;;;11.53;8.67;;;;;;;;;;5039056;28;20662;-89
2023/03/18 07:28:30;;;;;;;13.63;9.17;;;;;;;;;;5030300;28;20228;-89
2023/03/18 07:31:01;;;;;;;9.40;8.50;;;;;;;;;;5019687;28;20716;-87
2023/03/18 07:33:27;;;;;;;11.23;8.87;;;;;;;;;;5040399;28;20227;-87
2023/03/18 07:35:53;;;;;;;9.13;8.23;;;;;;;;;;5014646;28;20211;-87
2023/03/18 07:38:21;;;;;;;9.97;8.20;;;;;;;;;;5019181;28;20324;-87
2023/03/18 07:40:47;;;;;;;9.87;7.63;;;;;;;;;;5014131;28;20235;-88
2023/03/18 07:43:16;;;;;;;8.97;7.33;;;;;;;;;;5031356;28;20273;-88
2023/03/18 07:45:42;;;;;;;9.57;7.60;;;;;;;;;;5061165;28;20227;-88
2023/03/18 07:48:10;;;;;;;8.57;7.10;;;;;;;;;;5033194;28;20227;-88
2023/03/18 07:50:38;;;;;;;8.17;7.33;;;;;;;;;;5032611;28;20219;-87
2023/03/18 07:53:03;;;;;;;13.70;6.83;;;;;;;;;;5040634;28;20665;-88
2023/03/18 07:55:29;;;;;;;7.53;6.20;;;;;;;;;;5023495;28;20222;-88
2023/03/18 07:57:54;;;;;;;10.53;6.40;;;;;;;;;;5059744;28;20219;-87
2023/03/18 08:00:24;;;;;;;7.43;6.37;;;;;;;;;;5025099;28;20279;-87
2023/03/18 08:02:53;;;;;;;9.70;7.03;;;;;;;;;;5060362;28;20238;-89
2023/03/18 08:05:21;;;;;;;8.43;6.60;;;;;;;;;;5011837;28;20228;-85
2023/03/18 08:07:47;;;;;;;8.80;6.27;;;;;;;;;;5006739;28;20597;-85
2023/03/18 08:12:56;;;;;;;7.43;5.67;;;;;;;;;;5003804;28;20316;-88
2023/03/18 08:15:24;;;;;;;9.80;6.10;;;;;;;;;;5011305;28;20248;-88
2023/03/18 08:17:51;;;;;;;8.17;6.20;;;;;;;;;;4989761;28;20247;-88
2023/03/18 08:20:20;;;;;;;8.73;6.03;;;;;;;;;;4984766;28;20225;-87
2023/03/18 08:22:48;;;;;;;9.13;6.30;;;;;;;;;;4959871;28;20229;-82
2023/03/18 08:25:14;;;;;;;6.78;5.85;;;;;;;;;;4964085;28;20228;-89
2023/03/18 08:27:43;;;;;;;8.82;6.50;;;;;;;;;;5006965;28;20216;-87
2023/03/18 08:30:09;;;;;;;7.80;6.00;;;;;;;;;;4996008;28;20225;-88
2023/03/18 08:32:36;;;;;;;8.80;6.53;;;;;;;;;;4970625;28;20229;-86
2023/03/18 08:35:01;;;;;;;7.90;5.57;;;;;;;;;;4980856;28;20217;-86
2023/03/18 08:37:27;;;;;;;10.77;5.95;;;;;;;;;;4997861;28;20220;-87
2023/03/18 08:39:53;;;;;;;8.20;5.32;;;;;;;;;;4989144;28;20264;-87
2023/03/18 08:42:19;;;;;;;7.07;5.68;;;;;;;;;;4981030;28;20229;-85
2023/03/18 08:44:45;;;;;;;7.50;5.90;;;;;;;;;;4982016;28;20239;-83
2023/03/18 08:47:15;;;;;;;7.35;5.80;;;;;;;;;;5023606;28;20300;-82
2023/03/18 08:49:43;;;;;;;8.85;6.35;;;;;;;;;;5007508;28;20227;-85
2023/03/18 08:52:09;;;;;;;7.75;6.13;;;;;;;;;;4986214;28;20221;-84
2023/03/18 08:54:37;;;;;;;8.68;5.72;;;;;;;;;;4971377;28;20232;-84
2023/03/18 08:57:06;;;;;;;7.72;5.68;;;;;;;;;;4982485;28;20235;-85
2023/03/18 08:59:31;;;;;;;7.63;5.75;;;;;;;;;;4976655;28;20236;-85
2023/03/18 09:01:57;;;;;;;6.38;5.55;;;;;;;;;;4977974;28;20228;-83
2023/03/18 09:04:24;;;;;;;6.82;5.60;;;;;;;;;;4975235;28;20233;-84
2023/03/18 09:06:52;;;;;;;7.72;6.10;;;;;;;;;;4980493;28;20304;-82
2023/03/18 09:09:17;;;;;;;9.43;5.78;;;;;;;;;;4993211;28;20227;-83
2023/03/18 09:11:46;;;;;;;6.88;6.13;;;;;;;;;;4970010;28;20229;-82
2023/03/18 09:14:12;;;;;;;6.20;5.53;;;;;;;;;;4997306;28;20220;-83
2023/03/18 09:16:42;;;;;;;10.48;5.35;;;;;;;;;;4992448;28;20236;-82
2023/03/18 09:19:08;;;;;;;8.15;7.28;;;;;;;;;;5005247;28;20296;-83
2023/03/18 09:21:36;;;;;;;7.88;6.32;;;;;;;;;;5003485;28;20224;-84
2023/03/18 09:24:03;;;;;;;7.07;6.38;;;;;;;;;;4979020;28;20216;-81
2023/03/18 09:26:28;;;;;;;9.38;7.05;;;;;;;;;;4979381;28;20288;-84
2023/03/18 09:28:54;;;;;;;10.45;7.05;;;;;;;;;;4976195;28;20236;-84
2023/03/18 09:31:19;;;;;;;8.90;6.38;;;;;;;;;;4972295;28;21057;-86
2023/03/18 09:33:51;;;;;;;9.00;6.78;;;;;;;;;;4960915;28;20236;-88
2023/03/18 09:36:19;;;;;;;8.93;8.05;;;;;;;;;;4996688;28;20231;-87
2023/03/18 09:38:44;;;;;;;10.23;9.18;;;;;;;;;;4963702;28;20220;-83
2023/03/18 09:41:15;;;;;;;10.70;7.68;;;;;;;;;;5006163;28;20226;-80
2023/03/18 09:44:01;;;;;;;8.38;6.85;;;;;;;;;;5016702;28;20237;-80
2023/03/18 09:46:32;;;;;;;10.98;7.78;;;;;;;;;;5009237;28;20228;-80
2023/03/18 09:49:28;;;;;;;10.13;7.85;;;;;;;;;;4994073;28;20232;-80
2023/03/18 09:52:03;;;;;;;8.23;7.03;;;;;;;;;;5002636;28;20260;-83
2023/03/18 09:54:39;;;;;;;7.65;6.90;;;;;;;;;;5009730;28;20228;-80
2023/03/18 09:57:30;;;;;;;13.77;7.43;;;;;;;;;;4991688;28;20225;-80
